MST,Max TemperatureF,Mean TemperatureF,Min TemperatureF,Max Dew PointF,MeanDew PointF,Min DewpointF,Max Humidity, Mean Humidity, Min Humidity, Max Sea Level PressureIn, Mean Sea Level PressureIn, Min Sea Level PressureIn, Max VisibilityMiles, Mean VisibilityMiles, Min VisibilityMiles, Max Wind SpeedMPH, Mean Wind SpeedMPH, Max Gust SpeedMPH,PrecipitationIn, CloudCover, Events, WindDirDegrees
2013-7-1,99,85,70,53,47,37,49,30,15,30.09,29.84,29.77,10,10,6,29,7,36,T,1,Thunderstorm,203
2013-7-2,94,82,69,55,49,45,50,34,20,30.15,29.92,29.79,10,10,9,38,9,49,0.07,2,Rain-Thunderstorm,226
2013-7-3,97,82,66,55,50,44,63,40,17,30.15,29.83,29.74,10,10,10,29,7,40,T,2,Rain-Thunderstorm,194
2013-7-4,95,80,65,52,48,43,58,34,17,29.82,29.74,29.66,10,10,10,21,8,25,T,1,Rain,209
2013-7-5,91,80,69,58,51,45,57,37,21,29.83,29.75,29.70,10,10,10,23,9,30,0.01,2,Rain,184
2013-7-6,90,79,67,61,54,50,59,46,28,30.02,29.79,29.73,10,10,10,25,7,32,0.02,2,Rain-Thunderstorm,160
2013-7-7,95,78,60,55,47,35,69,37,13,29.85,29.79,29.73,10,10,10,21,5,29,T,1,,218
2013-7-8,96,82,68,48,41,35,37,23,13,29.91,29.85,29.80,10,10,10,18,6,25,T,1,,208
2013-7-9,98,82,65,52,43,34,39,27,11,29.99,29.91,29.83,10,10,10,18,6,23,0.00,1,,215
2013-7-10,93,82,71,61,56,44,68,50,20,30.14,29.91,29.82,10,10,8,21,6,25,T,3,Rain-Thunderstorm,181
2013-7-11,83,76,68,62,58,56,70,59,43,29.96,29.89,29.84,10,10,7,22,8,26,0.02,3,Rain-Thunderstorm,201
2013-7-12,83,72,61,62,57,54,84,61,37,30.16,29.93,29.87,10,10,10,18,5,24,0.03,3,Thunderstorm,221
2013-7-13,87,74,61,60,55,47,84,56,29,29.96,29.92,29.87,10,10,10,22,5,29,T,2,Rain,269
2013-7-14,90,78,65,55,53,48,63,45,27,29.93,29.88,29.83,10,10,10,20,5,24,T,1,,256
2013-7-15,91,77,62,61,55,47,87,59,26,30.07,29.85,29.79,10,10,9,28,6,37,0.08,3,Rain-Thunderstorm,216
2013-7-16,81,72,63,62,59,56,93,70,45,30.16,29.95,29.86,10,10,7,24,5,31,0.04,5,Rain-Thunderstorm,193
2013-7-17,89,75,61,62,59,53,100,66,31,30.23,30.04,29.95,10,9,2,24,5,31,0.01,3,Rain-Thunderstorm,199
2013-7-18,89,77,64,64,57,52,84,58,29,30.00,29.94,29.86,10,10,10,21,4,26,0.02,3,Rain,193
2013-7-19,90,77,64,61,58,52,78,56,27,30.09,29.89,29.80,10,10,10,18,4,23,T,3,Thunderstorm,197
2013-7-20,88,77,65,64,60,54,87,65,32,30.04,29.84,29.76,10,10,7,21,6,26,0.15,5,Rain-Thunderstorm,159
2013-7-21,78,71,64,64,62,60,93,76,54,30.12,29.90,29.81,10,10,10,17,4,22,0.03,6,Rain-Thunderstorm,150
2013-7-22,84,75,65,66,61,52,93,72,39,30.21,29.99,29.88,10,10,8,24,4,31,0.37,4,Rain-Thunderstorm,243
2013-7-23,85,74,62,62,60,57,93,65,43,29.98,29.93,29.88,10,10,9,15,4,18,T,3,Rain,275
2013-7-24,90,77,63,61,58,53,87,53,31,29.91,29.87,29.81,10,10,10,22,7,28,0.00,3,,242
2013-7-25,87,76,64,64,61,58,87,67,42,30.27,30.02,29.84,10,8,0,31,6,41,1.72,5,Rain-Hail-Thunderstorm,183
2013-7-26,83,73,63,65,61,54,93,75,43,30.33,30.08,29.98,10,10,2,17,4,29,0.33,4,Rain-Thunderstorm,206
2013-7-27,84,73,62,64,60,59,93,72,46,30.13,29.97,29.86,10,10,2,32,6,41,0.34,3,Rain-Thunderstorm,197
2013-7-28,87,74,61,61,57,50,97,61,29,30.07,29.85,29.78,10,10,9,25,6,32,0.07,3,Rain-Thunderstorm,208
2013-7-29,86,74,62,56,48,42,73,41,21,29.99,29.92,29.81,10,10,10,16,7,22,0.00,1,,191
2013-7-30,90,76,62,50,48,45,56,37,22,30.08,30.03,29.99,10,10,10,14,6,30,0.00,1,,200
2013-7-31,91,78,64,52,49,46,56,37,23,30.06,29.98,29.91,10,10,10,15,5,18,0.00,2,,198